createdAt,value
2018-04-28T00:01:40.847Z,15.06
2018-04-28T00:04:09.161Z,15.03
2018-04-28T00:06:37.508Z,14.94
2018-04-28T00:09:05.838Z,15.12
2018-04-28T00:11:34.166Z,14.82
2018-04-28T00:14:02.529Z,14.78
2018-04-28T00:16:33.689Z,14.75
2018-04-28T00:19:04.352Z,14.92
2018-04-28T00:21:38.582Z,14.73
2018-04-28T00:24:08.429Z,14.67
2018-04-28T00:26:38.459Z,14.66
2018-04-28T00:29:08.580Z,14.72
2018-04-28T00:34:52.073Z,14.71
2018-04-28T00:37:20.405Z,14.66
2018-04-28T00:40:11.314Z,14.68
2018-04-28T00:42:40.505Z,14.60
2018-04-28T00:45:11.712Z,14.72
2018-04-28T00:47:43.360Z,14.74
2018-04-28T00:53:26.057Z,14.55
2018-04-28T00:55:57.005Z,14.49
2018-04-28T00:58:30.812Z,14.50
2018-04-28T01:01:02.772Z,14.25
2018-04-28T01:03:34.666Z,14.10
2018-04-28T01:06:03.540Z,14.37
2018-04-28T01:08:31.928Z,14.31
2018-04-28T01:11:11.820Z,14.43
2018-04-28T01:13:40.858Z,14.42
2018-04-28T01:16:09.207Z,14.14
2018-04-28T01:18:46.285Z,14.20
2018-04-28T01:21:25.325Z,14.04
2018-04-28T01:23:55.119Z,13.92
2018-04-28T01:29:23.607Z,13.54
2018-04-28T01:31:58.711Z,13.33
2018-04-28T01:34:29.880Z,13.26
2018-04-28T01:37:12.492Z,13.26
2018-04-28T01:39:40.892Z,13.14
2018-04-28T01:48:30.228Z,13.02
2018-04-28T01:50:58.580Z,13.21
2018-04-28T01:53:31.769Z,13.35
2018-04-28T01:56:05.478Z,13.02
2018-04-28T01:58:38.569Z,12.90
2018-04-28T02:04:07.140Z,12.65
2018-04-28T02:06:37.717Z,12.40
2018-04-28T02:09:18.564Z,12.40
2018-04-28T02:11:50.453Z,12.38
2018-04-28T02:17:15.267Z,12.41
2018-04-28T02:19:52.528Z,12.52
2018-04-28T02:25:36.925Z,12.19
2018-04-28T02:28:17.357Z,12.25
2018-04-28T02:30:50.081Z,12.39
2018-04-28T02:33:18.426Z,12.44
2018-04-28T02:35:47.727Z,12.42
2018-04-28T02:38:18.361Z,12.69
2018-04-28T02:44:06.733Z,12.46
2018-04-28T02:46:44.958Z,12.55
2018-04-28T02:49:22.915Z,12.22
2018-04-28T02:54:56.279Z,12.50
2018-04-28T03:00:29.719Z,12.72
2018-04-28T03:03:00.856Z,12.45
2018-04-28T03:05:33.907Z,12.20
2018-04-28T03:08:09.174Z,12.16
2018-04-28T03:10:37.514Z,12.03
2018-04-28T03:13:25.748Z,11.89
2018-04-28T03:15:54.062Z,11.83
2018-04-28T03:18:22.364Z,11.76
2018-04-28T03:20:51.502Z,11.85
2018-04-28T03:23:31.462Z,11.80
2018-04-28T03:25:59.769Z,11.82
2018-04-28T03:28:31.490Z,11.71
2018-04-28T03:31:08.577Z,11.66
2018-04-28T03:33:38.694Z,11.65
2018-04-28T03:36:19.053Z,11.72
2018-04-28T03:38:54.142Z,11.74
2018-04-28T03:41:25.125Z,11.91
2018-04-28T03:43:54.933Z,11.97
2018-04-28T03:46:24.037Z,11.74
2018-04-28T03:48:57.025Z,11.68
2018-04-28T03:51:30.078Z,11.73
2018-04-28T03:54:00.822Z,12.00
2018-04-28T03:57:04.603Z,12.18
2018-04-28T03:59:45.078Z,12.59
2018-04-28T04:02:25.321Z,12.63
2018-04-28T04:05:10.195Z,12.49
2018-04-28T04:10:48.245Z,12.84
2018-04-28T04:13:32.401Z,12.78
2018-04-28T04:19:06.726Z,13.07
2018-04-28T04:24:51.228Z,13.12
2018-04-28T04:27:47.259Z,13.18
2018-04-28T04:30:22.275Z,13.18
2018-04-28T04:32:50.648Z,13.12
2018-04-28T04:38:21.133Z,13.01
2018-04-28T04:41:01.339Z,13.14
2018-04-28T04:46:57.993Z,13.25
2018-04-28T04:49:28.061Z,13.30
2018-04-28T04:52:05.866Z,13.29
2018-04-28T04:54:41.889Z,13.07
2018-04-28T05:00:33.594Z,13.02
2018-04-28T05:03:13.817Z,13.07
2018-04-28T05:08:57.508Z,13.41
2018-04-28T05:11:49.429Z,13.40
2018-04-28T05:17:27.933Z,13.55
2018-04-28T05:20:03.014Z,13.58
2018-04-28T05:22:43.249Z,13.53
2018-04-28T05:25:28.444Z,13.56
2018-04-28T05:28:11.994Z,13.67
2018-04-28T05:33:47.391Z,13.80
2018-04-28T05:36:27.433Z,13.83
2018-04-28T05:42:21.340Z,13.81
2018-04-28T05:44:50.485Z,13.87
2018-04-28T05:50:54.017Z,14.05
2018-04-28T05:56:44.409Z,14.25
2018-04-28T06:02:24.941Z,14.43
2018-04-28T06:05:05.009Z,14.47
2018-04-28T06:07:50.099Z,14.51
2018-04-28T06:10:28.136Z,14.65
2018-04-28T06:16:14.902Z,14.78
2018-04-28T06:18:55.925Z,14.75
2018-04-28T06:21:24.251Z,14.85
2018-04-28T06:23:52.667Z,14.85
2018-04-28T06:26:21.062Z,14.89
2018-04-28T06:28:49.377Z,14.97
2018-04-28T06:31:17.684Z,14.99
2018-04-28T06:33:46.041Z,15.03
2018-04-28T06:36:14.357Z,15.11
2018-04-28T06:38:42.663Z,15.12
2018-04-28T06:41:11.088Z,15.07
2018-04-28T06:43:39.317Z,15.16
2018-04-28T06:46:07.629Z,15.17
2018-04-28T06:48:35.953Z,15.20
2018-04-28T06:51:04.364Z,15.20
2018-04-28T06:53:32.661Z,15.19
2018-04-28T06:56:00.981Z,15.26
2018-04-28T06:58:29.386Z,15.34
2018-04-28T07:00:57.704Z,15.30
2018-04-28T07:03:26.081Z,15.42
2018-04-28T07:05:54.388Z,15.55
2018-04-28T07:08:22.700Z,15.62
2018-04-28T07:10:51.150Z,15.60
2018-04-28T07:13:19.480Z,15.67
2018-04-28T07:15:47.804Z,15.76
2018-04-28T07:18:16.108Z,15.81
2018-04-28T07:20:44.510Z,15.71
2018-04-28T07:23:12.832Z,15.69
2018-04-28T07:25:41.145Z,15.82
2018-04-28T07:28:09.457Z,15.78
2018-04-28T07:30:37.775Z,15.89
2018-04-28T07:33:06.178Z,16.09
2018-04-28T07:35:34.585Z,16.02
2018-04-28T07:38:02.946Z,16.00
2018-04-28T07:40:31.317Z,16.03
2018-04-28T07:42:59.625Z,16.22
2018-04-28T07:45:27.961Z,16.14
2018-04-28T07:47:56.285Z,16.15
2018-04-28T07:50:24.703Z,16.21
2018-04-28T07:52:53.033Z,16.21
2018-04-28T07:55:21.372Z,16.26
2018-04-28T07:57:49.669Z,16.32
2018-04-28T08:00:17.981Z,16.49
2018-04-28T08:02:46.331Z,16.40
2018-04-28T08:05:14.649Z,16.52
2018-04-28T08:07:42.986Z,16.69
2018-04-28T08:10:11.304Z,16.55
2018-04-28T08:12:39.679Z,16.69
2018-04-28T08:15:08.057Z,16.75
2018-04-28T08:17:36.394Z,16.93
2018-04-28T08:20:04.783Z,16.85
2018-04-28T08:22:33.141Z,16.83
2018-04-28T08:25:01.470Z,16.90
2018-04-28T08:27:29.773Z,17.11
2018-04-28T08:29:58.088Z,17.19
2018-04-28T08:32:26.397Z,17.30
2018-04-28T08:34:54.705Z,17.44
2018-04-28T08:37:23.169Z,17.58
2018-04-28T08:39:51.391Z,17.64
2018-04-28T08:42:19.807Z,17.78
2018-04-28T08:44:48.118Z,17.75
2018-04-28T08:47:16.564Z,17.38
2018-04-28T08:49:44.916Z,17.72
2018-04-28T08:52:13.212Z,17.42
2018-04-28T08:54:41.557Z,17.34
2018-04-28T08:57:09.929Z,17.26
2018-04-28T09:02:44.877Z,17.60
2018-04-28T09:05:13.215Z,17.55
2018-04-28T09:07:42.567Z,17.62
2018-04-28T09:10:10.945Z,17.78
2018-04-28T09:12:50.844Z,17.88
2018-04-28T09:15:19.161Z,17.92
2018-04-28T09:17:47.504Z,17.85
2018-04-28T09:20:15.841Z,17.83
2018-04-28T09:22:52.189Z,18.15
2018-04-28T09:25:20.653Z,17.75
2018-04-28T09:27:52.852Z,18.05
2018-04-28T09:30:21.210Z,18.65
2018-04-28T09:32:49.525Z,18.56
2018-04-28T09:35:17.820Z,18.12
2018-04-28T09:37:46.253Z,18.28
2018-04-28T09:40:14.629Z,18.38
2018-04-28T09:42:42.940Z,18.50
2018-04-28T09:45:11.264Z,18.43
2018-04-28T09:47:39.703Z,18.46
2018-04-28T09:50:07.998Z,18.70
2018-04-28T09:52:36.332Z,18.81
2018-04-28T09:55:04.706Z,19.02
2018-04-28T09:57:33.042Z,19.03
2018-04-28T10:00:13.308Z,19.42
2018-04-28T10:02:41.629Z,19.72
2018-04-28T10:05:09.941Z,18.93
2018-04-28T10:07:38.359Z,18.81
2018-04-28T10:10:06.680Z,18.72
2018-04-28T10:12:35.058Z,19.43
2018-04-28T10:15:03.437Z,19.32
2018-04-28T10:17:31.770Z,19.40
2018-04-28T10:20:00.081Z,19.45
2018-04-28T10:22:28.432Z,19.65
2018-04-28T10:24:56.753Z,19.73
2018-04-28T10:27:25.072Z,19.57
2018-04-28T10:29:53.448Z,19.56
2018-04-28T10:32:21.850Z,20.17
2018-04-28T10:34:50.218Z,20.21
2018-04-28T10:37:18.538Z,19.95
2018-04-28T10:39:46.857Z,20.02
2018-04-28T10:42:15.150Z,19.76
2018-04-28T10:44:43.945Z,19.85
2018-04-28T10:47:12.305Z,20.20
2018-04-28T10:49:40.711Z,19.91
2018-04-28T10:52:09.040Z,19.83
2018-04-28T10:54:37.352Z,20.79
2018-04-28T10:57:05.717Z,20.55
2018-04-28T10:59:34.029Z,20.20
2018-04-28T11:02:02.373Z,20.46
2018-04-28T11:04:30.693Z,20.45
2018-04-28T11:06:59.909Z,20.53
2018-04-28T11:09:28.216Z,20.76
2018-04-28T11:11:56.609Z,20.94
2018-04-28T11:14:24.984Z,21.39
2018-04-28T11:16:53.360Z,21.32
2018-04-28T11:19:21.764Z,21.33
2018-04-28T11:21:50.096Z,21.45
2018-04-28T11:24:18.400Z,21.63
2018-04-28T11:26:46.714Z,22.07
2018-04-28T11:29:15.048Z,22.37
2018-04-28T11:31:43.432Z,22.44
2018-04-28T11:34:11.740Z,22.32
2018-04-28T11:36:40.978Z,22.34
2018-04-28T11:39:09.428Z,22.59
2018-04-28T11:41:37.753Z,22.77
2018-04-28T11:44:06.100Z,22.96
2018-04-28T11:46:34.413Z,23.25
2018-04-28T11:49:02.720Z,23.52
2018-04-28T11:51:31.109Z,23.82
2018-04-28T11:53:59.448Z,23.88
2018-04-28T11:56:27.765Z,24.07
2018-04-28T11:58:56.133Z,24.51
2018-04-28T12:01:24.408Z,24.75
2018-04-28T12:03:52.729Z,24.86
2018-04-28T12:06:21.049Z,25.25
2018-04-28T12:08:49.372Z,26.12
2018-04-28T12:11:17.701Z,25.94
2018-04-28T12:13:46.084Z,26.11
2018-04-28T12:16:14.451Z,26.65
2018-04-28T12:18:42.773Z,26.83
2018-04-28T12:21:11.154Z,26.25
2018-04-28T12:23:39.388Z,26.91
2018-04-28T12:26:07.741Z,27.12
2018-04-28T12:28:36.114Z,27.89
2018-04-28T12:31:04.436Z,27.14
2018-04-28T12:33:32.785Z,26.42
2018-04-28T12:36:01.179Z,27.70
2018-04-28T12:38:29.438Z,27.71
2018-04-28T12:40:57.738Z,27.70
2018-04-28T12:43:26.059Z,28.30
2018-04-28T12:45:54.377Z,28.43
2018-04-28T12:48:22.785Z,28.32
2018-04-28T12:50:51.158Z,29.07
2018-04-28T12:53:19.441Z,28.19
2018-04-28T12:55:47.773Z,28.63
2018-04-28T12:58:16.100Z,29.12
2018-04-28T13:00:44.414Z,28.96
2018-04-28T13:03:12.804Z,29.47
2018-04-28T13:05:41.120Z,28.81
2018-04-28T13:08:09.458Z,28.84
2018-04-28T13:10:37.764Z,29.82
2018-04-28T13:13:06.086Z,29.41
2018-04-28T13:15:34.440Z,30.08
2018-04-28T13:18:02.781Z,28.72
2018-04-28T13:20:31.098Z,29.02
2018-04-28T13:22:59.420Z,30.02
2018-04-28T13:25:27.805Z,30.36
2018-04-28T13:27:56.137Z,28.94
2018-04-28T13:30:24.455Z,29.44
2018-04-28T13:32:52.749Z,29.03
2018-04-28T13:35:21.155Z,30.06
2018-04-28T13:37:49.461Z,29.56
2018-04-28T13:40:17.753Z,28.99
2018-04-28T13:42:46.188Z,28.64
2018-04-28T13:45:14.516Z,29.10
2018-04-28T13:47:42.838Z,29.21
2018-04-28T13:50:11.164Z,30.49
2018-04-28T13:52:39.472Z,29.61
2018-04-28T13:55:07.828Z,30.55
2018-04-28T13:57:36.252Z,29.95
2018-04-28T14:00:04.631Z,30.33
2018-04-28T14:02:32.936Z,30.17
2018-04-28T14:05:01.256Z,31.20
2018-04-28T14:07:29.698Z,31.22
2018-04-28T14:09:57.999Z,30.33
2018-04-28T14:12:26.378Z,29.59
2018-04-28T14:14:54.698Z,30.27
2018-04-28T14:17:23.006Z,30.12
2018-04-28T14:19:51.325Z,29.83
2018-04-28T14:22:19.635Z,30.72
2018-04-28T14:24:47.940Z,30.54
2018-04-28T14:27:16.261Z,29.83
2018-04-28T14:29:44.593Z,28.66
2018-04-28T14:32:12.902Z,30.68
2018-04-28T14:34:41.220Z,29.43
2018-04-28T14:37:09.554Z,28.82
2018-04-28T14:39:37.893Z,28.95
2018-04-28T14:42:06.243Z,29.53
2018-04-28T14:44:34.526Z,29.60
2018-04-28T14:47:02.838Z,29.47
2018-04-28T14:49:31.157Z,28.77
2018-04-28T14:51:59.513Z,28.09
2018-04-28T14:54:27.836Z,29.04
2018-04-28T14:56:56.173Z,26.70
2018-04-28T14:59:24.484Z,27.58
2018-04-28T15:01:52.797Z,27.13
2018-04-28T15:04:21.201Z,26.76
2018-04-28T15:06:49.524Z,27.79
2018-04-28T15:09:17.951Z,29.90
2018-04-28T15:11:46.276Z,30.56
2018-04-28T15:14:15.272Z,30.80
2018-04-28T15:16:43.601Z,30.08
2018-04-28T15:19:11.905Z,31.02
2018-04-28T15:21:40.229Z,30.77
2018-04-28T15:24:08.549Z,31.13
2018-04-28T15:26:36.902Z,31.44
2018-04-28T15:29:05.291Z,31.63
2018-04-28T15:31:33.529Z,31.01
2018-04-28T15:34:01.933Z,32.65
2018-04-28T15:36:30.310Z,32.16
2018-04-28T15:38:58.616Z,31.94
2018-04-28T15:41:26.941Z,32.41
2018-04-28T15:43:55.400Z,32.27
2018-04-28T15:46:23.732Z,31.32
2018-04-28T15:48:52.046Z,33.03
2018-04-28T15:51:20.357Z,32.42
2018-04-28T15:53:48.687Z,32.08
2018-04-28T15:56:17.004Z,31.90
2018-04-28T15:58:45.304Z,33.19
2018-04-28T16:01:13.686Z,32.44
2018-04-28T16:03:42.096Z,32.32
2018-04-28T16:06:10.430Z,32.99
2018-04-28T16:08:38.761Z,32.97
2018-04-28T16:11:07.137Z,32.46
2018-04-28T16:13:35.421Z,32.83
2018-04-28T16:16:03.729Z,32.83
2018-04-28T16:18:32.157Z,32.23
2018-04-28T16:21:00.463Z,32.06
2018-04-28T16:23:28.784Z,31.05
2018-04-28T16:25:57.117Z,30.55
2018-04-28T16:28:25.491Z,30.99
2018-04-28T16:30:53.784Z,31.11
2018-04-28T16:33:22.200Z,31.61
2018-04-28T16:35:50.522Z,30.83
2018-04-28T16:38:18.866Z,30.99
2018-04-28T16:40:47.252Z,31.01
2018-04-28T16:43:15.615Z,30.18
2018-04-28T16:45:43.993Z,30.66
2018-04-28T16:48:12.474Z,30.47
2018-04-28T16:50:40.834Z,30.65
2018-04-28T16:53:09.097Z,30.04
2018-04-28T16:55:37.446Z,30.36
2018-04-28T16:58:05.746Z,29.94
2018-04-28T17:00:34.060Z,29.78
2018-04-28T17:03:02.390Z,29.31
2018-04-28T17:05:30.697Z,28.28
2018-04-28T17:07:59.076Z,28.28
2018-04-28T17:10:27.407Z,27.96
2018-04-28T17:12:55.738Z,26.43
2018-04-28T17:15:24.124Z,25.42
2018-04-28T17:17:55.260Z,25.09
2018-04-28T17:20:23.576Z,24.54
2018-04-28T17:22:51.916Z,24.44
2018-04-28T17:25:20.236Z,23.95
2018-04-28T17:27:48.553Z,24.00
2018-04-28T17:30:16.894Z,23.91
2018-04-28T17:32:45.229Z,23.73
2018-04-28T17:35:13.542Z,23.71
2018-04-28T17:37:41.847Z,23.59
2018-04-28T17:40:10.173Z,23.38
2018-04-28T17:42:38.481Z,23.10
2018-04-28T17:45:06.791Z,23.24
2018-04-28T17:47:35.178Z,23.23
2018-04-28T17:50:03.501Z,23.09
2018-04-28T17:52:31.871Z,22.83
2018-04-28T17:55:00.228Z,22.66
2018-04-28T17:57:28.548Z,22.65
2018-04-28T17:59:56.976Z,22.55
2018-04-28T18:02:25.304Z,22.36
2018-04-28T18:04:53.676Z,22.33
2018-04-28T18:07:21.996Z,22.30
2018-04-28T18:09:50.395Z,22.27
2018-04-28T18:12:18.765Z,22.20
2018-04-28T18:14:47.077Z,22.14
2018-04-28T18:17:15.459Z,21.88
2018-04-28T18:19:43.760Z,22.02
2018-04-28T18:22:12.066Z,21.92
2018-04-28T18:24:40.454Z,21.81
2018-04-28T18:27:08.765Z,21.73
2018-04-28T18:29:37.073Z,21.71
2018-04-28T18:32:05.389Z,21.61
2018-04-28T18:34:33.801Z,21.54
2018-04-28T18:37:03.021Z,21.51
2018-04-28T18:39:31.381Z,21.45
2018-04-28T18:42:00.642Z,21.05
2018-04-28T18:44:29.061Z,20.89
2018-04-28T18:46:57.392Z,20.88
2018-04-28T18:49:25.773Z,20.98
2018-04-28T18:51:54.149Z,20.97
2018-04-28T18:54:22.482Z,20.84
2018-04-28T18:56:50.786Z,20.63
2018-04-28T18:59:19.177Z,20.47
2018-04-28T19:01:47.560Z,20.36
2018-04-28T19:04:15.950Z,20.31
2018-04-28T19:06:44.253Z,20.33
2018-04-28T19:09:12.569Z,20.04
2018-04-28T19:11:40.889Z,20.11
2018-04-28T19:14:09.226Z,20.01
2018-04-28T19:16:37.545Z,19.78
2018-04-28T19:19:05.907Z,19.81
2018-04-28T19:21:34.394Z,19.68
2018-04-28T19:24:02.715Z,19.72
2018-04-28T19:26:31.018Z,19.61
2018-04-28T19:28:59.424Z,19.41
2018-04-28T19:31:27.744Z,19.43
2018-04-28T19:33:56.066Z,19.28
2018-04-28T19:36:24.363Z,19.46
2018-04-28T19:38:52.735Z,19.41
2018-04-28T19:41:21.106Z,19.47
2018-04-28T19:43:49.421Z,19.31
2018-04-28T19:46:17.763Z,19.36
2018-04-28T19:48:46.198Z,19.17
2018-04-28T19:51:14.468Z,19.09
2018-04-28T19:53:42.787Z,18.78
2018-04-28T19:56:11.281Z,18.78
2018-04-28T19:58:39.605Z,18.69
2018-04-28T20:01:08.041Z,18.58
2018-04-28T20:03:36.351Z,18.68
2018-04-28T20:06:04.657Z,18.79
2018-04-28T20:08:32.992Z,18.65
2018-04-28T20:11:01.342Z,18.44
2018-04-28T20:13:29.683Z,18.32
2018-04-28T20:15:58.014Z,18.35
2018-04-28T20:18:26.320Z,18.22
2018-04-28T20:20:54.617Z,18.08
2018-04-28T20:23:34.599Z,18.26
2018-04-28T20:26:02.913Z,18.11
2018-04-28T20:28:31.205Z,18.05
2018-04-28T20:31:00.626Z,18.06
2018-04-28T20:33:28.934Z,17.84
2018-04-28T20:35:57.388Z,17.80
2018-04-28T20:38:25.678Z,17.76
2018-04-28T20:40:54.000Z,17.74
2018-04-28T20:43:22.336Z,17.77
2018-04-28T20:45:50.716Z,17.78
2018-04-28T20:48:19.032Z,17.54
2018-04-28T20:50:47.514Z,17.46
2018-04-28T20:53:15.820Z,17.62
2018-04-28T20:55:44.131Z,17.53
2018-04-28T20:58:12.445Z,17.46
2018-04-28T21:00:40.750Z,17.32
2018-04-28T21:03:09.065Z,17.35
2018-04-28T21:05:37.382Z,17.39
2018-04-28T21:08:05.717Z,17.40
2018-04-28T21:10:34.029Z,17.41
2018-04-28T21:13:02.345Z,17.40
2018-04-28T21:15:30.740Z,17.36
2018-04-28T21:17:59.063Z,17.25
2018-04-28T21:20:27.429Z,17.16
2018-04-28T21:22:55.762Z,17.21
2018-04-28T21:25:24.156Z,17.05
2018-04-28T21:27:52.474Z,17.10
2018-04-28T21:30:20.805Z,17.28
2018-04-28T21:32:49.198Z,17.25
2018-04-28T21:35:17.504Z,17.22
2018-04-28T21:37:45.856Z,17.33
2018-04-28T21:40:15.101Z,17.22
2018-04-28T21:42:43.518Z,17.22
2018-04-28T21:45:11.838Z,17.13
2018-04-28T21:47:40.149Z,16.98
2018-04-28T21:50:08.561Z,16.75
2018-04-28T21:52:36.888Z,16.68
2018-04-28T21:55:05.190Z,16.71
2018-04-28T21:57:33.584Z,16.68
2018-04-28T22:00:01.971Z,16.57
2018-04-28T22:02:30.350Z,16.35
2018-04-28T22:04:58.664Z,16.51
2018-04-28T22:07:27.040Z,16.42
2018-04-28T22:09:55.382Z,16.44
2018-04-28T22:12:23.690Z,16.18
2018-04-28T22:14:52.014Z,16.06
2018-04-28T22:17:20.405Z,15.93
2018-04-28T22:19:48.725Z,16.03
2018-04-28T22:22:17.265Z,15.89
2018-04-28T22:24:45.644Z,15.93
2018-04-28T22:27:14.027Z,15.93
2018-04-28T22:29:42.357Z,15.96
2018-04-28T22:32:10.777Z,15.91
2018-04-28T22:34:39.096Z,15.80
2018-04-28T22:37:07.418Z,15.68
2018-04-28T22:39:35.729Z,15.51
2018-04-28T22:42:04.044Z,15.51
2018-04-28T22:44:32.431Z,15.33
2018-04-28T22:47:00.738Z,15.33
2018-04-28T22:49:29.054Z,15.42
2018-04-28T22:51:57.379Z,15.25
2018-04-28T22:54:25.699Z,15.47
2018-04-28T22:56:54.058Z,15.22
2018-04-28T22:59:22.385Z,15.05
2018-04-28T23:01:50.713Z,15.21
2018-04-28T23:04:19.015Z,15.17
2018-04-28T23:06:47.382Z,15.29
2018-04-28T23:09:15.693Z,15.09
2018-04-28T23:11:44.026Z,15.06
2018-04-28T23:14:12.361Z,14.80
2018-04-28T23:16:40.764Z,14.68
2018-04-28T23:19:09.084Z,14.83
2018-04-28T23:21:37.409Z,14.61
2018-04-28T23:24:05.713Z,14.88
2018-04-28T23:26:34.193Z,14.85
2018-04-28T23:29:02.556Z,14.90
2018-04-28T23:31:30.948Z,14.87
2018-04-28T23:33:59.312Z,14.61
2018-04-28T23:36:27.694Z,14.82
2018-04-28T23:38:56.070Z,14.82
2018-04-28T23:41:24.381Z,14.68
2018-04-28T23:43:52.709Z,14.58
2018-04-28T23:46:21.053Z,14.55
2018-04-28T23:48:49.384Z,14.55
2018-04-28T23:51:17.869Z,14.57
2018-04-28T23:53:46.178Z,14.41
2018-04-28T23:56:14.484Z,14.43
2018-04-28T23:58:42.811Z,14.24
